createdAt,value
2018-06-30T00:01:54.425Z,17.40
2018-06-30T00:04:23.148Z,17.40
2018-06-30T00:06:51.843Z,17.30
2018-06-30T00:09:20.590Z,17.30
2018-06-30T00:11:49.317Z,17.30
2018-06-30T00:14:18.004Z,17.30
2018-06-30T00:16:46.709Z,17.20
2018-06-30T00:22:03.371Z,17.20
2018-06-30T00:24:32.061Z,17.10
2018-06-30T00:27:06.075Z,17.10
2018-06-30T00:29:34.750Z,17.00
2018-06-30T00:32:03.477Z,17.00
2018-06-30T00:34:32.169Z,17.00
2018-06-30T00:37:00.873Z,17.00
2018-06-30T00:41:57.916Z,16.90
2018-06-30T00:44:26.606Z,16.90
2018-06-30T00:46:55.297Z,16.90
2018-06-30T00:49:23.988Z,16.80
2018-06-30T00:51:52.819Z,16.80
2018-06-30T00:54:21.512Z,16.70
2018-06-30T00:56:50.251Z,16.70
2018-06-30T00:59:18.963Z,16.60
2018-06-30T01:01:53.339Z,16.60
2018-06-30T01:04:22.051Z,16.50
2018-06-30T01:07:02.821Z,16.50
2018-06-30T01:09:31.532Z,16.50
2018-06-30T01:12:00.290Z,16.50
2018-06-30T01:14:29.071Z,16.50
2018-06-30T01:16:57.790Z,16.50
2018-06-30T01:19:26.516Z,16.50
2018-06-30T01:21:55.204Z,16.50
2018-06-30T01:24:23.938Z,16.40
2018-06-30T01:26:52.681Z,16.40
2018-06-30T01:29:21.370Z,16.40
2018-06-30T01:31:50.074Z,16.40
2018-06-30T01:34:18.741Z,16.40
2018-06-30T01:36:47.430Z,16.40
2018-06-30T01:39:16.106Z,16.30
2018-06-30T01:41:44.781Z,16.30
2018-06-30T01:44:13.478Z,16.30
2018-06-30T01:46:42.151Z,16.20
2018-06-30T01:49:10.882Z,16.20
2018-06-30T01:51:39.577Z,16.20
2018-06-30T01:54:08.262Z,16.20
2018-06-30T01:56:36.982Z,16.10
2018-06-30T01:59:05.645Z,16.10
2018-06-30T02:01:34.390Z,16.10
2018-06-30T02:04:03.130Z,16.10
2018-06-30T02:06:31.846Z,16.10
2018-06-30T02:09:00.557Z,16.00
2018-06-30T02:11:29.303Z,16.00
2018-06-30T02:13:57.982Z,16.00
2018-06-30T02:16:26.710Z,15.90
2018-06-30T02:18:55.371Z,16.00
2018-06-30T02:21:24.046Z,15.90
2018-06-30T02:23:52.733Z,15.90
2018-06-30T02:26:21.416Z,15.80
2018-06-30T02:28:50.095Z,15.70
2018-06-30T02:31:18.879Z,15.60
2018-06-30T02:33:47.601Z,15.60
2018-06-30T02:36:16.347Z,15.60
2018-06-30T02:38:45.251Z,15.60
2018-06-30T02:41:13.922Z,15.60
2018-06-30T02:43:42.642Z,15.60
2018-06-30T02:46:11.379Z,15.60
2018-06-30T02:48:40.072Z,15.50
2018-06-30T02:51:08.788Z,15.50
2018-06-30T02:53:37.504Z,15.50
2018-06-30T02:56:07.276Z,15.50
2018-06-30T02:58:36.000Z,15.50
2018-06-30T03:01:04.759Z,15.50
2018-06-30T03:03:33.475Z,15.50
2018-06-30T03:06:02.163Z,15.50
2018-06-30T03:08:30.889Z,15.50
2018-06-30T03:10:59.620Z,15.50
2018-06-30T03:13:28.327Z,15.50
2018-06-30T03:15:57.277Z,15.50
2018-06-30T03:18:25.982Z,15.50
2018-06-30T03:20:54.686Z,15.40
2018-06-30T03:23:23.402Z,15.40
2018-06-30T03:25:52.131Z,15.30
2018-06-30T03:28:20.825Z,15.30
2018-06-30T03:31:07.884Z,15.30
2018-06-30T03:33:36.575Z,15.30
2018-06-30T03:36:05.329Z,15.20
2018-06-30T03:38:34.072Z,15.20
2018-06-30T03:41:02.706Z,15.20
2018-06-30T03:43:31.394Z,15.20
2018-06-30T03:46:00.099Z,15.20
2018-06-30T03:50:57.141Z,15.20
2018-06-30T03:53:25.855Z,15.20
2018-06-30T03:55:54.648Z,15.20
2018-06-30T03:58:23.347Z,15.30
2018-06-30T04:00:52.054Z,15.30
2018-06-30T04:03:20.776Z,15.30
2018-06-30T04:05:49.485Z,15.20
2018-06-30T04:08:18.170Z,15.20
2018-06-30T04:10:46.941Z,15.20
2018-06-30T04:13:15.634Z,15.20
2018-06-30T04:15:44.346Z,15.30
2018-06-30T04:18:13.026Z,15.30
2018-06-30T04:20:41.719Z,15.30
2018-06-30T04:23:10.412Z,15.40
2018-06-30T04:25:39.112Z,15.40
2018-06-30T04:28:07.847Z,15.40
2018-06-30T04:30:36.551Z,15.50
2018-06-30T04:33:05.547Z,15.50
2018-06-30T04:35:34.245Z,15.50
2018-06-30T04:38:02.934Z,15.60
2018-06-30T04:40:31.662Z,15.60
2018-06-30T04:43:00.414Z,15.70
2018-06-30T04:45:29.141Z,15.70
2018-06-30T04:47:57.862Z,15.80
2018-06-30T04:50:26.611Z,15.90
2018-06-30T04:52:55.428Z,15.90
2018-06-30T04:57:52.450Z,16.00
2018-06-30T05:00:21.194Z,16.10
2018-06-30T05:02:49.889Z,16.10
2018-06-30T05:05:18.668Z,16.20
2018-06-30T05:07:47.389Z,16.20
2018-06-30T05:10:16.094Z,16.30
2018-06-30T05:12:44.801Z,16.40
2018-06-30T05:15:13.546Z,16.40
2018-06-30T05:17:42.275Z,16.50
2018-06-30T05:20:10.942Z,16.60
2018-06-30T05:22:39.646Z,16.70
2018-06-30T05:25:08.367Z,16.80
2018-06-30T05:27:37.112Z,16.80
2018-06-30T05:30:06.223Z,16.90
2018-06-30T05:32:34.981Z,17.00
2018-06-30T05:35:03.818Z,17.10
2018-06-30T05:37:32.582Z,17.20
2018-06-30T05:40:01.279Z,17.70
2018-06-30T05:42:32.126Z,19.40
2018-06-30T05:45:00.882Z,19.40
2018-06-30T05:47:29.894Z,20.00
2018-06-30T05:49:58.699Z,20.50
2018-06-30T05:52:27.516Z,21.10
2018-06-30T05:54:56.255Z,21.80
2018-06-30T05:57:24.981Z,22.10
2018-06-30T05:59:53.703Z,22.50
2018-06-30T06:02:22.519Z,22.50
2018-06-30T06:04:51.198Z,23.10
2018-06-30T06:07:21.126Z,23.30
2018-06-30T06:12:18.168Z,23.40
2018-06-30T06:14:46.887Z,24.10
2018-06-30T06:17:15.567Z,24.50
2018-06-30T06:19:44.870Z,24.60
2018-06-30T06:22:14.103Z,24.70
2018-06-30T06:24:43.946Z,24.70
2018-06-30T06:27:12.636Z,24.60
2018-06-30T06:29:41.642Z,24.50
2018-06-30T06:32:10.351Z,24.60
2018-06-30T06:34:45.447Z,24.70
2018-06-30T06:37:15.723Z,25.00
2018-06-30T06:39:44.723Z,25.10
2018-06-30T06:42:13.412Z,25.40
2018-06-30T06:44:42.131Z,25.00
2018-06-30T06:47:10.988Z,24.70
2018-06-30T06:49:40.066Z,25.10
2018-06-30T06:52:09.194Z,25.30
2018-06-30T06:54:37.945Z,25.00
2018-06-30T06:59:34.979Z,24.70
2018-06-30T07:02:03.680Z,24.50
2018-06-30T07:04:33.449Z,24.10
2018-06-30T07:07:02.859Z,23.90
2018-06-30T07:09:31.588Z,23.40
2018-06-30T07:12:10.674Z,23.20
2018-06-30T07:14:39.410Z,23.10
2018-06-30T07:17:08.138Z,22.90
2018-06-30T07:19:37.719Z,22.60
2018-06-30T07:22:06.462Z,22.50
2018-06-30T07:24:35.228Z,22.50
2018-06-30T07:27:04.132Z,22.50
2018-06-30T07:32:01.138Z,22.60
2018-06-30T07:34:29.872Z,22.70
2018-06-30T07:37:18.388Z,22.80
2018-06-30T07:39:47.071Z,22.80
2018-06-30T07:42:15.842Z,22.90
2018-06-30T07:44:44.588Z,22.90
2018-06-30T07:47:13.282Z,22.90
2018-06-30T07:49:42.036Z,23.00
2018-06-30T07:52:10.782Z,23.10
2018-06-30T07:57:07.824Z,23.10
2018-06-30T07:59:36.559Z,23.20
2018-06-30T08:02:05.409Z,23.30
2018-06-30T08:04:34.180Z,23.20
2018-06-30T08:07:02.935Z,23.20
2018-06-30T08:09:31.642Z,23.30
2018-06-30T08:12:00.378Z,23.20
2018-06-30T08:14:29.124Z,23.30
2018-06-30T08:16:57.892Z,23.40
2018-06-30T08:19:26.642Z,23.50
2018-06-30T08:21:55.434Z,23.70
2018-06-30T08:24:24.258Z,23.70
2018-06-30T08:26:53.144Z,23.70
2018-06-30T08:29:21.966Z,23.70
2018-06-30T08:31:50.691Z,23.70
2018-06-30T08:34:19.538Z,23.80
2018-06-30T08:36:48.234Z,24.00
2018-06-30T08:39:16.987Z,23.90
2018-06-30T08:41:45.708Z,23.90
2018-06-30T08:44:14.486Z,24.00
2018-06-30T08:46:43.248Z,24.00
2018-06-30T08:49:12.446Z,24.10
2018-06-30T08:51:41.226Z,24.20
2018-06-30T08:54:09.953Z,24.30
2018-06-30T08:56:38.668Z,24.50
2018-06-30T08:59:07.418Z,24.60
2018-06-30T09:01:36.161Z,24.60
2018-06-30T09:04:04.940Z,24.70
2018-06-30T09:06:33.703Z,24.70
2018-06-30T09:09:02.544Z,24.50
2018-06-30T09:11:31.308Z,24.60
2018-06-30T09:14:00.031Z,24.70
2018-06-30T09:16:28.779Z,24.80
2018-06-30T09:18:57.530Z,25.00
2018-06-30T09:21:26.273Z,25.00
2018-06-30T09:23:55.044Z,24.80
2018-06-30T09:26:23.780Z,24.80
2018-06-30T09:28:52.542Z,24.80
2018-06-30T09:31:21.370Z,25.00
2018-06-30T09:33:50.083Z,25.20
2018-06-30T09:36:18.842Z,25.30
2018-06-30T09:41:15.983Z,25.30
2018-06-30T09:43:44.689Z,25.50
2018-06-30T09:46:13.392Z,25.50
2018-06-30T09:48:42.162Z,25.40
2018-06-30T09:51:10.948Z,25.50
2018-06-30T09:53:39.655Z,25.50
2018-06-30T09:56:08.426Z,25.60
2018-06-30T09:58:37.155Z,25.70
2018-06-30T10:01:08.293Z,25.90
2018-06-30T10:03:38.275Z,26.00
2018-06-30T10:06:07.141Z,25.90
2018-06-30T10:08:36.006Z,25.90
2018-06-30T10:11:04.787Z,26.00
2018-06-30T10:13:33.518Z,26.00
2018-06-30T10:16:02.278Z,26.10
2018-06-30T10:18:31.091Z,26.20
2018-06-30T10:23:56.382Z,26.30
2018-06-30T10:26:25.184Z,26.40
2018-06-30T10:28:53.994Z,26.50
2018-06-30T10:31:22.839Z,26.50
2018-06-30T10:33:51.485Z,26.70
2018-06-30T10:36:20.248Z,26.70
2018-06-30T10:38:49.022Z,26.80
2018-06-30T10:41:17.760Z,26.80
2018-06-30T10:43:46.463Z,27.00
2018-06-30T10:46:38.053Z,27.00
2018-06-30T10:49:07.663Z,27.00
2018-06-30T10:51:36.513Z,27.10
2018-06-30T10:54:05.254Z,27.00
2018-06-30T10:56:36.278Z,27.00
2018-06-30T10:59:07.088Z,27.20
2018-06-30T11:01:35.929Z,27.30
2018-06-30T11:04:10.169Z,27.40
2018-06-30T11:06:38.903Z,27.40
2018-06-30T11:09:10.523Z,27.20
2018-06-30T11:11:39.283Z,27.20
2018-06-30T11:14:08.054Z,27.30
2018-06-30T11:16:36.780Z,27.40
2018-06-30T11:19:05.578Z,27.40
2018-06-30T11:21:34.274Z,27.60
2018-06-30T11:24:03.067Z,27.60
2018-06-30T11:29:42.558Z,27.90
2018-06-30T11:32:11.724Z,28.00
2018-06-30T11:34:40.434Z,28.10
2018-06-30T11:37:09.154Z,28.00
2018-06-30T11:39:38.078Z,28.10
2018-06-30T11:42:07.942Z,28.30
2018-06-30T11:44:37.331Z,28.30
2018-06-30T11:47:06.246Z,28.00
2018-06-30T11:49:35.023Z,28.00
2018-06-30T11:52:03.820Z,28.10
2018-06-30T11:54:32.502Z,28.20
2018-06-30T11:59:55.058Z,28.50
2018-06-30T12:02:23.751Z,28.80
2018-06-30T12:04:52.506Z,28.80
2018-06-30T12:07:21.222Z,29.00
2018-06-30T12:09:49.905Z,28.90
2018-06-30T12:12:18.680Z,28.50
2018-06-30T12:14:47.422Z,28.30
2018-06-30T12:17:16.134Z,28.30
2018-06-30T12:19:44.834Z,28.50
2018-06-30T12:22:13.557Z,28.70
2018-06-30T12:24:43.237Z,28.70
2018-06-30T12:29:44.203Z,28.80
2018-06-30T12:32:13.047Z,29.00
2018-06-30T12:34:41.741Z,29.20
2018-06-30T12:37:10.421Z,29.40
2018-06-30T12:39:48.771Z,29.30
2018-06-30T12:42:17.446Z,29.30
2018-06-30T12:44:47.165Z,29.20
2018-06-30T12:47:15.894Z,29.00
2018-06-30T12:49:44.579Z,29.00
2018-06-30T12:52:13.329Z,28.90
2018-06-30T12:57:10.493Z,29.40
2018-06-30T12:59:39.187Z,29.50
2018-06-30T13:04:36.204Z,29.70
2018-06-30T13:07:05.009Z,29.80
2018-06-30T13:09:33.787Z,29.90
2018-06-30T13:12:02.714Z,30.00
2018-06-30T13:14:42.006Z,30.20
2018-06-30T13:17:13.420Z,30.10
2018-06-30T13:19:42.295Z,29.90
2018-06-30T13:22:11.001Z,29.60
2018-06-30T13:24:39.724Z,29.60
2018-06-30T13:27:08.421Z,29.80
2018-06-30T13:29:37.115Z,29.80
2018-06-30T13:32:11.941Z,30.10
2018-06-30T13:34:42.703Z,30.20
2018-06-30T13:37:11.426Z,30.10
2018-06-30T13:39:40.152Z,30.40
2018-06-30T13:42:09.350Z,30.70
2018-06-30T13:47:06.414Z,31.10
2018-06-30T13:49:46.279Z,31.20
2018-06-30T13:55:05.495Z,30.80
2018-06-30T13:57:34.297Z,30.80
2018-06-30T14:00:15.350Z,30.90
2018-06-30T14:02:44.236Z,31.00
2018-06-30T14:05:12.938Z,31.20
2018-06-30T14:07:41.679Z,31.40
2018-06-30T14:10:10.466Z,31.40
2018-06-30T14:12:39.307Z,31.30
2018-06-30T14:15:09.361Z,30.60
2018-06-30T14:20:38.750Z,30.90
2018-06-30T14:23:07.550Z,31.10
2018-06-30T14:25:36.238Z,31.20
2018-06-30T14:28:05.060Z,31.20
2018-06-30T14:30:33.782Z,31.30
2018-06-30T14:33:03.534Z,31.30
2018-06-30T14:35:33.395Z,31.30
2018-06-30T14:38:02.100Z,31.30
2018-06-30T14:40:30.849Z,31.00
2018-06-30T14:43:11.863Z,31.30
2018-06-30T14:45:40.631Z,31.30
2018-06-30T14:48:09.358Z,30.90
2018-06-30T14:50:43.574Z,30.20
2018-06-30T14:53:12.522Z,30.30
2018-06-30T14:55:41.190Z,29.90
2018-06-30T14:58:23.218Z,29.70
2018-06-30T15:00:51.942Z,29.60
2018-06-30T15:03:20.662Z,29.30
2018-06-30T15:05:49.413Z,29.30
2018-06-30T15:08:19.224Z,29.60
2018-06-30T15:10:47.938Z,29.90
2018-06-30T15:13:16.634Z,30.10
2018-06-30T15:15:45.398Z,30.30
2018-06-30T15:18:14.126Z,30.30
2018-06-30T15:20:42.846Z,30.40
2018-06-30T15:23:11.541Z,30.20
2018-06-30T15:25:40.221Z,30.10
2018-06-30T15:28:12.098Z,30.10
2018-06-30T15:30:40.830Z,30.10
2018-06-30T15:36:04.895Z,30.40
2018-06-30T15:41:38.143Z,30.60
2018-06-30T15:44:07.182Z,30.60
2018-06-30T15:46:35.952Z,31.00
2018-06-30T15:49:04.799Z,31.10
2018-06-30T15:51:33.509Z,31.30
2018-06-30T15:54:02.211Z,31.10
2018-06-30T15:56:31.018Z,31.10
2018-06-30T15:58:59.695Z,31.40
2018-06-30T16:01:28.486Z,31.30
2018-06-30T16:03:57.190Z,30.70
2018-06-30T16:06:25.982Z,30.90
2018-06-30T16:08:54.675Z,30.90
2018-06-30T16:11:23.422Z,31.10
2018-06-30T16:13:52.188Z,31.00
2018-06-30T16:16:20.952Z,30.60
2018-06-30T16:18:49.906Z,31.00
2018-06-30T16:21:18.682Z,30.80
2018-06-30T16:23:49.428Z,30.80
2018-06-30T16:26:18.125Z,30.80
2018-06-30T16:28:46.853Z,30.30
2018-06-30T16:31:15.538Z,30.10
2018-06-30T16:36:45.785Z,30.40
2018-06-30T16:39:16.574Z,30.20
2018-06-30T16:41:45.273Z,30.20
2018-06-30T16:44:13.988Z,30.50
2018-06-30T16:49:11.194Z,30.20
2018-06-30T16:51:58.640Z,30.30
2018-06-30T16:54:27.352Z,30.60
2018-06-30T16:56:56.074Z,30.60
2018-06-30T16:59:28.799Z,30.60
2018-06-30T17:01:57.478Z,30.50
2018-06-30T17:04:26.179Z,30.40
2018-06-30T17:06:54.926Z,30.20
2018-06-30T17:09:24.477Z,30.30
2018-06-30T17:11:53.182Z,30.10
2018-06-30T17:14:21.881Z,30.00
2018-06-30T17:16:56.737Z,30.20
2018-06-30T17:19:25.441Z,30.10
2018-06-30T17:21:54.178Z,29.90
2018-06-30T17:24:22.878Z,29.80
2018-06-30T17:26:51.661Z,29.90
2018-06-30T17:29:20.442Z,29.80
2018-06-30T17:31:49.179Z,29.70
2018-06-30T17:34:17.902Z,29.60
2018-06-30T17:36:46.916Z,29.10
2018-06-30T17:39:15.857Z,29.10
2018-06-30T17:41:44.822Z,29.00
2018-06-30T17:44:13.640Z,28.90
2018-06-30T17:46:42.322Z,28.30
2018-06-30T17:49:11.442Z,28.20
2018-06-30T17:51:40.162Z,28.00
2018-06-30T17:54:09.335Z,27.70
2018-06-30T17:56:38.197Z,27.50
2018-06-30T17:59:06.915Z,27.10
2018-06-30T18:01:35.679Z,26.80
2018-06-30T18:04:04.526Z,26.50
2018-06-30T18:06:33.302Z,26.30
2018-06-30T18:09:01.964Z,26.20
2018-06-30T18:14:17.384Z,25.90
2018-06-30T18:16:46.181Z,25.80
2018-06-30T18:19:16.822Z,25.70
2018-06-30T18:21:45.556Z,25.60
2018-06-30T18:24:14.430Z,25.50
2018-06-30T18:26:43.176Z,25.40
2018-06-30T18:29:11.997Z,25.40
2018-06-30T18:31:40.687Z,25.30
2018-06-30T18:34:09.402Z,25.20
2018-06-30T18:36:38.123Z,25.10
2018-06-30T18:44:52.681Z,24.90
2018-06-30T18:47:23.394Z,24.80
2018-06-30T18:49:56.121Z,24.80
2018-06-30T18:52:25.083Z,24.80
2018-06-30T18:55:05.896Z,24.70
2018-06-30T18:57:37.189Z,24.60
2018-06-30T19:00:07.243Z,24.50
2018-06-30T19:02:36.206Z,24.40
2018-06-30T19:05:05.084Z,24.30
2018-06-30T19:07:33.783Z,24.20
2018-06-30T19:10:02.576Z,24.10
2018-06-30T19:12:36.593Z,24.10
2018-06-30T19:15:06.034Z,24.10
2018-06-30T19:17:34.958Z,24.00
2018-06-30T19:20:05.647Z,24.00
2018-06-30T19:22:34.418Z,23.90
2018-06-30T19:25:03.341Z,23.70
2018-06-30T19:27:32.064Z,23.70
2018-06-30T19:30:00.779Z,23.60
2018-06-30T19:32:32.535Z,23.50
2018-06-30T19:35:03.631Z,23.30
2018-06-30T19:37:32.349Z,23.30
2018-06-30T19:40:01.397Z,23.30
2018-06-30T19:42:30.070Z,23.30
2018-06-30T19:44:58.799Z,23.20
2018-06-30T19:47:27.461Z,23.10
2018-06-30T19:49:57.523Z,23.00
2018-06-30T19:52:27.030Z,22.90
2018-06-30T19:54:55.781Z,23.00
2018-06-30T19:57:25.409Z,22.90
2018-06-30T19:59:54.097Z,22.90
2018-06-30T20:02:23.859Z,22.80
2018-06-30T20:04:52.741Z,22.80
2018-06-30T20:07:21.421Z,22.70
2018-06-30T20:09:50.142Z,22.60
2018-06-30T20:12:19.433Z,22.50
2018-06-30T20:14:50.280Z,22.30
2018-06-30T20:17:18.949Z,22.30
2018-06-30T20:19:47.623Z,22.30
2018-06-30T20:22:16.326Z,22.20
2018-06-30T20:24:45.005Z,22.10
2018-06-30T20:27:13.942Z,22.10
2018-06-30T20:29:42.623Z,22.00
2018-06-30T20:32:11.283Z,21.90
2018-06-30T20:34:39.982Z,21.80
2018-06-30T20:37:08.801Z,21.70
2018-06-30T20:39:37.567Z,21.60
2018-06-30T20:42:06.306Z,21.60
2018-06-30T20:44:34.986Z,21.60
2018-06-30T20:47:03.759Z,21.50
2018-06-30T20:49:32.518Z,21.40
2018-06-30T20:52:01.332Z,21.30
2018-06-30T20:54:30.085Z,21.30
2018-06-30T20:56:58.795Z,21.20
2018-06-30T20:59:27.503Z,21.20
2018-06-30T21:01:56.178Z,21.10
2018-06-30T21:04:24.926Z,21.00
2018-06-30T21:06:53.642Z,20.90
2018-06-30T21:09:22.325Z,20.80
2018-06-30T21:11:51.094Z,20.80
2018-06-30T21:14:19.798Z,20.70
2018-06-30T21:16:48.583Z,20.60
2018-06-30T21:19:17.305Z,19.80
2018-06-30T21:21:46.043Z,20.60
2018-06-30T21:24:14.786Z,20.50
2018-06-30T21:26:43.483Z,20.50
2018-06-30T21:29:12.311Z,20.50
2018-06-30T21:31:41.123Z,20.50
2018-06-30T21:34:09.812Z,20.40
2018-06-30T21:36:38.592Z,20.20
2018-06-30T21:39:10.648Z,20.20
2018-06-30T21:41:39.478Z,20.20
2018-06-30T21:44:08.173Z,20.20
2018-06-30T21:46:37.222Z,20.10
2018-06-30T21:49:06.091Z,20.00
2018-06-30T21:51:36.890Z,19.80
2018-06-30T21:54:13.774Z,19.70
2018-06-30T21:56:42.521Z,19.70
2018-06-30T21:59:11.492Z,19.60
2018-06-30T22:01:41.019Z,19.60
2018-06-30T22:04:09.762Z,19.60
2018-06-30T22:06:38.527Z,19.60
2018-06-30T22:09:09.098Z,19.50
2018-06-30T22:11:37.914Z,19.60
2018-06-30T22:14:06.907Z,19.70
2018-06-30T22:16:35.666Z,19.60
2018-06-30T22:19:04.563Z,19.60
2018-06-30T22:21:33.303Z,19.60
2018-06-30T22:24:02.315Z,19.60
2018-06-30T22:26:31.421Z,19.50
2018-06-30T22:29:00.242Z,19.50
2018-06-30T22:31:35.626Z,19.40
2018-06-30T22:34:26.319Z,19.30
2018-06-30T22:37:17.475Z,19.30
2018-06-30T22:39:58.345Z,19.30
2018-06-30T22:45:33.636Z,19.20
2018-06-30T22:48:02.353Z,19.10
2018-06-30T22:50:31.096Z,19.10
2018-06-30T22:52:59.819Z,19.10
2018-06-30T22:55:28.748Z,19.10
2018-06-30T22:58:09.492Z,19.00
2018-06-30T23:00:38.239Z,19.00
2018-06-30T23:03:10.994Z,18.90
2018-06-30T23:05:40.535Z,18.80
2018-06-30T23:08:09.308Z,18.70
2018-06-30T23:10:38.030Z,18.70
2018-06-30T23:13:06.947Z,18.60
2018-06-30T23:15:35.638Z,18.50
2018-06-30T23:18:08.195Z,18.50
2018-06-30T23:20:36.910Z,18.40
2018-06-30T23:23:12.410Z,18.40
2018-06-30T23:25:43.895Z,18.40
2018-06-30T23:28:12.673Z,18.30
2018-06-30T23:30:41.370Z,18.30
2018-06-30T23:33:10.079Z,18.20
2018-06-30T23:35:38.778Z,18.20
2018-06-30T23:38:11.190Z,18.20
2018-06-30T23:40:39.912Z,18.10
2018-06-30T23:43:08.613Z,18.10
2018-06-30T23:45:37.305Z,18.00
2018-06-30T23:48:06.367Z,17.90
2018-06-30T23:50:35.111Z,17.90
2018-06-30T23:53:03.882Z,17.80
2018-06-30T23:55:32.586Z,17.70
2018-06-30T23:58:01.299Z,17.60
